This is the latest recevied weather packets stored in our database for station/object DM4SB-13. If no packets are shown the sender has not sent any weather packets the latest 10 day(s).
| Time | Temp. | Humidity | Pressure | Rain* | Wind** | Luminosity | Snow |
|---|---|---|---|---|---|---|---|
| 1777831217 | 22.22° C | 38% | 1011.8 hPa | - | - | - | - |
| 1777830617 | 22.22° C | 37% | 1011.6 hPa | - | - | - | - |
| 1777830017 | 22.78° C | 37% | 1011.5 hPa | - | - | - | - |
| 1777829417 | 22.78° C | 37% | 1011.7 hPa | - | - | - | - |
| 1777828818 | 22.78° C | 36% | 1011.6 hPa | - | - | - | - |
| 1777828218 | 23.33° C | 36% | 1011.3 hPa | - | - | - | - |
| 1777827618 | 23.33° C | 36% | 1011.2 hPa | - | - | - | - |
| 1777827017 | 23.33° C | 35% | 1011.2 hPa | - | - | - | - |
| 1777826417 | 23.89° C | 35% | 1011.1 hPa | - | - | - | - |
| 1777825817 | 24.44° C | 35% | 1010.9 hPa | - | - | - | - |
| 1777825217 | 24.44° C | 35% | 1010.9 hPa | - | - | - | - |
| 1777824618 | 25° C | 34% | 1011 hPa | - | - | - | - |
| 1777824018 | 25° C | 34% | 1011 hPa | - | - | - | - |
| 1777823417 | 25° C | 34% | 1011 hPa | - | - | - | - |
| 1777822818 | 25.56° C | 34% | 1011.2 hPa | - | - | - | - |
| 1777822217 | 25.56° C | 33% | 1011.1 hPa | - | - | - | - |
| 1777821617 | 26.11° C | 34% | 1011.1 hPa | - | - | - | - |
| 1777821017 | 26.67° C | 34% | 1011.1 hPa | - | - | - | - |
| 1777820417 | 28.33° C | 33% | 1011.3 hPa | - | - | - | - |
| 1777819818 | 29.44° C | 32% | 1011.4 hPa | - | - | - | - |
| 1777819218 | 27.78° C | 34% | 1011.7 hPa | - | - | - | - |
| 1777818618 | 24.44° C | 39% | 1011.9 hPa | - | - | - | - |
| 1777818017 | 21.11° C | 42% | 1012.1 hPa | - | - | - | - |
| 1777817418 | 21.11° C | 40% | 1011.9 hPa | - | - | - | - |
| 1777816818 | 21.67° C | 40% | 1011.9 hPa | - | - | - | - |
* Rain since midnight (hover to see other rain measurements)
** Current wind speed in m/s (hover to see current wind gust speed)